Time;durP1;ratioP1;P1;durP2;ratioP2;P2;SDS_P1;SDS_P2;PMS_P1;PMS_P2;Temp;Humidity;BMP_temperature;BMP_pressure;BME280_temperature;BME280_humidity;BME280_pressure;Samples;Min_cycle;Max_cycle;Signal;HPM_P1;HPM_P2
2023/01/27 00:00:17;;;;;;;23.17;12.37;;;;;;;;;;4990794;28;20250;-86
2023/01/27 00:02:45;;;;;;;26.70;13.33;;;;;;;;;;4990963;28;20212;-85
2023/01/27 00:05:13;;;;;;;24.60;12.50;;;;;;;;;;4990256;28;20253;-85
2023/01/27 00:07:44;;;;;;;29.27;13.47;;;;;;;;;;4990780;28;20231;-85
2023/01/27 00:10:12;;;;;;;24.83;12.80;;;;;;;;;;4990918;28;20710;-85
2023/01/27 00:15:25;;;;;;;35.27;13.73;;;;;;;;;;4990735;28;20250;-85
2023/01/27 00:17:52;;;;;;;26.23;13.10;;;;;;;;;;4991074;28;20207;-86
2023/01/27 00:24:34;;;;;;;24.40;13.37;;;;;;;;;;4990688;28;20321;-85
2023/01/27 00:25:59;;;;;;;27.27;12.20;;;;;;;;;;4974410;28;20237;-85
2023/01/27 00:28:30;;;;;;;29.33;14.00;;;;;;;;;;4990592;28;20707;-86
2023/01/27 00:30:57;;;;;;;26.33;13.60;;;;;;;;;;4990432;28;20321;-85
2023/01/27 00:33:26;;;;;;;31.43;14.33;;;;;;;;;;4990091;28;20208;-85
2023/01/27 00:35:58;;;;;;;29.33;14.00;;;;;;;;;;4989724;28;20235;-85
2023/01/27 00:38:25;;;;;;;24.70;12.73;;;;;;;;;;4990860;28;20636;-85
2023/01/27 00:43:34;;;;;;;26.63;13.00;;;;;;;;;;4989983;28;20289;-85
2023/01/27 00:46:02;;;;;;;26.80;13.50;;;;;;;;;;4990303;28;20300;-85
2023/01/27 00:48:29;;;;;;;24.87;12.77;;;;;;;;;;4990830;28;20259;-85
2023/01/27 00:50:56;;;;;;;22.33;12.17;;;;;;;;;;4990221;28;20274;-84
2023/01/27 00:53:23;;;;;;;31.37;13.97;;;;;;;;;;4990418;28;20215;-85
2023/01/27 00:55:50;;;;;;;27.13;12.73;;;;;;;;;;4990204;28;20240;-85
2023/01/27 00:58:17;;;;;;;29.70;14.30;;;;;;;;;;4990912;28;20210;-85
2023/01/27 01:00:46;;;;;;;29.77;14.03;;;;;;;;;;4990114;28;20243;-84
2023/01/27 01:03:13;;;;;;;29.57;14.80;;;;;;;;;;4990612;28;20202;-85
2023/01/27 01:05:40;;;;;;;33.30;13.97;;;;;;;;;;4989376;28;20242;-85
2023/01/27 01:08:07;;;;;;;26.73;13.57;;;;;;;;;;4990306;28;20230;-85
2023/01/27 01:10:34;;;;;;;28.17;13.80;;;;;;;;;;4990188;28;20236;-85
2023/01/27 01:13:01;;;;;;;26.13;13.20;;;;;;;;;;4990439;28;20203;-85
2023/01/27 01:15:29;;;;;;;32.27;13.67;;;;;;;;;;4989950;28;20659;-84
2023/01/27 01:17:57;;;;;;;31.17;13.57;;;;;;;;;;4990655;28;20313;-85
2023/01/27 01:20:24;;;;;;;28.17;13.10;;;;;;;;;;4990120;28;20243;-85
2023/01/27 01:22:51;;;;;;;28.73;13.13;;;;;;;;;;4990186;28;20222;-85
2023/01/27 01:25:18;;;;;;;28.60;12.77;;;;;;;;;;4989827;28;20343;-85
2023/01/27 01:27:45;;;;;;;30.10;13.47;;;;;;;;;;4990339;28;20204;-85
2023/01/27 01:30:13;;;;;;;32.83;14.37;;;;;;;;;;4989785;28;20235;-85
2023/01/27 01:32:40;;;;;;;28.67;14.00;;;;;;;;;;4990332;28;20211;-85
2023/01/27 01:35:09;;;;;;;28.73;12.37;;;;;;;;;;4989641;28;20239;-85
2023/01/27 01:37:36;;;;;;;29.67;13.27;;;;;;;;;;4990215;28;20219;-85
2023/01/27 01:40:03;;;;;;;33.90;12.87;;;;;;;;;;4989872;28;20235;-85
2023/01/27 01:42:45;;;;;;;35.20;14.93;;;;;;;;;;4989727;28;20580;-84
2023/01/27 01:45:30;;;;;;;30.70;13.53;;;;;;;;;;4970522;28;20240;-84
2023/01/27 01:47:58;;;;;;;29.43;13.23;;;;;;;;;;4986421;28;20772;-85
2023/01/27 01:50:26;;;;;;;33.30;12.90;;;;;;;;;;4988970;28;20231;-85
2023/01/27 01:52:54;;;;;;;29.93;14.03;;;;;;;;;;4989343;28;20265;-85
2023/01/27 01:55:21;;;;;;;31.93;13.80;;;;;;;;;;4991267;28;20263;-85
2023/01/27 01:57:49;;;;;;;34.30;14.93;;;;;;;;;;4994712;28;20211;-85
2023/01/27 02:00:16;;;;;;;27.97;12.47;;;;;;;;;;4989217;28;20242;-85
2023/01/27 02:02:44;;;;;;;35.10;14.97;;;;;;;;;;4989387;28;20203;-85
2023/01/27 02:05:13;;;;;;;31.50;13.40;;;;;;;;;;4988774;28;20242;-86
2023/01/27 02:07:45;;;;;;;36.47;14.57;;;;;;;;;;4988583;28;20208;-85
2023/01/27 02:10:12;;;;;;;41.07;14.90;;;;;;;;;;4988690;28;20236;-85
2023/01/27 02:12:39;;;;;;;32.40;13.40;;;;;;;;;;4988894;28;20564;-85
2023/01/27 02:15:07;;;;;;;31.20;13.00;;;;;;;;;;4989132;28;20243;-86
2023/01/27 02:17:35;;;;;;;33.67;14.23;;;;;;;;;;4990684;28;20211;-86
2023/01/27 02:20:05;;;;;;;31.07;14.43;;;;;;;;;;4992285;28;20239;-85
2023/01/27 02:22:36;;;;;;;40.03;14.57;;;;;;;;;;4992237;28;20207;-85
2023/01/27 02:25:08;;;;;;;41.17;15.27;;;;;;;;;;4992366;28;20716;-85
2023/01/27 02:30:39;;;;;;;31.87;14.20;;;;;;;;;;5007244;28;20238;-85
2023/01/27 02:33:10;;;;;;;36.07;15.40;;;;;;;;;;5002125;28;20218;-85
2023/01/27 02:35:39;;;;;;;31.87;15.07;;;;;;;;;;4992185;28;20235;-85
2023/01/27 02:38:07;;;;;;;36.87;14.60;;;;;;;;;;4992618;28;20207;-85
2023/01/27 02:40:35;;;;;;;29.23;14.40;;;;;;;;;;4992229;28;20243;-86
2023/01/27 02:43:04;;;;;;;31.70;13.73;;;;;;;;;;5038760;28;20230;-85
2023/01/27 02:45:32;;;;;;;36.60;15.03;;;;;;;;;;4991332;28;20241;-85
2023/01/27 02:48:00;;;;;;;30.10;13.53;;;;;;;;;;4992272;28;20208;-85
2023/01/27 02:50:28;;;;;;;32.03;13.47;;;;;;;;;;4991884;28;20239;-85
2023/01/27 02:52:56;;;;;;;37.37;14.60;;;;;;;;;;4992475;28;20212;-85
2023/01/27 02:55:23;;;;;;;34.13;13.97;;;;;;;;;;4991872;28;20240;-85
2023/01/27 02:57:50;;;;;;;38.60;15.10;;;;;;;;;;4992546;28;20230;-85
2023/01/27 03:00:17;;;;;;;31.87;14.90;;;;;;;;;;4991483;28;20228;-86
2023/01/27 03:02:44;;;;;;;31.83;14.33;;;;;;;;;;4991927;28;20208;-85
2023/01/27 03:05:14;;;;;;;30.43;13.67;;;;;;;;;;4991598;28;20240;-85
2023/01/27 03:07:41;;;;;;;33.87;14.80;;;;;;;;;;4992509;28;20232;-85
2023/01/27 03:10:09;;;;;;;30.93;14.10;;;;;;;;;;4991716;28;20236;-85
2023/01/27 03:12:36;;;;;;;31.20;13.77;;;;;;;;;;4991738;28;20205;-85
2023/01/27 03:20:34;;;;;;;30.27;13.00;;;;;;;;;;4991514;28;20238;-85
2023/01/27 03:23:01;;;;;;;33.40;14.37;;;;;;;;;;4991599;28;20219;-85
2023/01/27 03:25:28;;;;;;;29.30;13.47;;;;;;;;;;4991339;28;20246;-85
2023/01/27 03:27:55;;;;;;;31.13;12.60;;;;;;;;;;4991115;28;20214;-85
2023/01/27 03:30:22;;;;;;;32.83;13.90;;;;;;;;;;4991361;28;20258;-86
2023/01/27 03:32:49;;;;;;;31.70;13.00;;;;;;;;;;4991407;28;20225;-85
2023/01/27 03:35:17;;;;;;;35.47;13.63;;;;;;;;;;4991257;28;20249;-85
2023/01/27 03:46:15;;;;;;;34.30;13.77;;;;;;;;;;4991047;28;20333;-83
2023/01/27 03:48:43;;;;;;;25.37;13.30;;;;;;;;;;4991969;28;20265;-83
2023/01/27 03:51:10;;;;;;;29.87;14.23;;;;;;;;;;4990824;28;20247;-83
2023/01/27 03:53:39;;;;;;;30.00;13.57;;;;;;;;;;4991334;28;20570;-83
2023/01/27 03:56:06;;;;;;;27.20;12.97;;;;;;;;;;4990690;28;20243;-83
2023/01/27 03:58:34;;;;;;;25.77;11.33;;;;;;;;;;4991646;28;20208;-83
2023/01/27 04:01:02;;;;;;;31.97;14.73;;;;;;;;;;4991066;28;20246;-83
2023/01/27 04:09:02;;;;;;;25.57;12.87;;;;;;;;;;4990916;28;20358;-84
2023/01/27 04:14:15;;;;;;;30.63;12.50;;;;;;;;;;4990280;28;20198;-84
2023/01/27 04:16:42;;;;;;;29.77;12.97;;;;;;;;;;4990497;28;20224;-83
2023/01/27 04:19:10;;;;;;;27.40;12.70;;;;;;;;;;4990970;28;20207;-83
2023/01/27 04:21:37;;;;;;;28.70;12.80;;;;;;;;;;4990806;28;20211;-83
2023/01/27 04:24:07;;;;;;;24.73;12.20;;;;;;;;;;4990514;28;20203;-83
2023/01/27 04:26:34;;;;;;;30.20;12.17;;;;;;;;;;4990781;28;20219;-83
2023/01/27 04:29:02;;;;;;;28.03;11.63;;;;;;;;;;4990683;28;20227;-83
2023/01/27 04:31:29;;;;;;;25.40;12.80;;;;;;;;;;4990637;28;20242;-83
2023/01/27 04:33:57;;;;;;;33.20;12.93;;;;;;;;;;4990607;28;20204;-83
2023/01/27 04:36:24;;;;;;;31.00;12.90;;;;;;;;;;4990452;28;20239;-84
2023/01/27 04:38:51;;;;;;;27.10;12.00;;;;;;;;;;4990612;28;20205;-83
2023/01/27 04:41:19;;;;;;;26.90;12.67;;;;;;;;;;4989462;28;20235;-83
2023/01/27 04:43:47;;;;;;;22.53;11.63;;;;;;;;;;4990298;28;20213;-83
2023/01/27 04:46:14;;;;;;;27.23;11.87;;;;;;;;;;4990312;28;20228;-84
2023/01/27 04:48:41;;;;;;;26.07;12.87;;;;;;;;;;4990739;28;20196;-84
2023/01/27 04:51:08;;;;;;;23.43;12.20;;;;;;;;;;4990477;28;20228;-85
2023/01/27 04:53:35;;;;;;;24.37;11.83;;;;;;;;;;4990130;28;20210;-85
2023/01/27 04:56:02;;;;;;;22.87;11.27;;;;;;;;;;4990128;28;20238;-84
2023/01/27 04:58:31;;;;;;;25.37;11.93;;;;;;;;;;4990815;28;20623;-85
2023/01/27 05:00:58;;;;;;;23.90;11.73;;;;;;;;;;4989859;28;20239;-84
2023/01/27 05:03:25;;;;;;;24.13;12.47;;;;;;;;;;4990265;28;20543;-85
2023/01/27 05:05:52;;;;;;;22.60;11.50;;;;;;;;;;4989863;28;20247;-84
2023/01/27 05:08:19;;;;;;;19.23;9.70;;;;;;;;;;4990475;28;20261;-85
2023/01/27 05:10:46;;;;;;;20.80;10.00;;;;;;;;;;4989982;28;20244;-84
2023/01/27 05:13:13;;;;;;;18.87;10.07;;;;;;;;;;4990123;28;20200;-84
2023/01/27 05:15:42;;;;;;;15.30;9.27;;;;;;;;;;4990038;28;20247;-84
2023/01/27 05:18:09;;;;;;;19.90;9.73;;;;;;;;;;4990395;28;20204;-84
2023/01/27 05:20:36;;;;;;;14.63;7.90;;;;;;;;;;4989596;28;20231;-84
2023/01/27 05:25:48;;;;;;;15.00;9.10;;;;;;;;;;4989551;28;20266;-85
2023/01/27 05:28:15;;;;;;;16.20;9.53;;;;;;;;;;4973152;28;20589;-84
2023/01/27 05:30:43;;;;;;;14.77;8.50;;;;;;;;;;4988800;28;20243;-85
2023/01/27 05:33:10;;;;;;;16.37;8.77;;;;;;;;;;4989430;28;20219;-85
2023/01/27 05:35:37;;;;;;;17.97;8.80;;;;;;;;;;4989296;28;20245;-84
2023/01/27 05:38:05;;;;;;;14.53;9.20;;;;;;;;;;4988985;28;20219;-86
2023/01/27 05:40:32;;;;;;;16.80;9.87;;;;;;;;;;4988965;28;20227;-86
2023/01/27 05:42:59;;;;;;;15.93;9.50;;;;;;;;;;4988661;28;20711;-85
2023/01/27 05:45:26;;;;;;;14.27;8.67;;;;;;;;;;4989204;28;20236;-85
2023/01/27 05:47:54;;;;;;;15.70;8.57;;;;;;;;;;4989656;28;20203;-84
2023/01/27 05:50:21;;;;;;;15.93;8.67;;;;;;;;;;4989143;28;20240;-85
2023/01/27 05:52:48;;;;;;;15.73;9.97;;;;;;;;;;4992861;28;20568;-84
2023/01/27 05:55:15;;;;;;;11.87;8.37;;;;;;;;;;4992625;28;20265;-85
2023/01/27 05:57:42;;;;;;;16.43;8.47;;;;;;;;;;4992693;28;20588;-84
2023/01/27 06:00:11;;;;;;;17.03;9.93;;;;;;;;;;4991954;28;20239;-84
2023/01/27 06:02:38;;;;;;;15.40;9.33;;;;;;;;;;4976584;28;20196;-84
2023/01/27 06:05:07;;;;;;;13.87;8.40;;;;;;;;;;4992324;28;20636;-85
2023/01/27 06:07:34;;;;;;;13.27;8.00;;;;;;;;;;4992329;28;20212;-84
2023/01/27 06:10:02;;;;;;;16.97;9.10;;;;;;;;;;4991764;28;20242;-86
2023/01/27 06:12:29;;;;;;;15.30;8.90;;;;;;;;;;4992736;28;20744;-85
2023/01/27 06:14:59;;;;;;;15.90;9.20;;;;;;;;;;4993643;28;20235;-85
2023/01/27 06:17:26;;;;;;;15.93;8.33;;;;;;;;;;4993147;28;20212;-85
2023/01/27 06:19:55;;;;;;;13.17;8.83;;;;;;;;;;4992630;28;20235;-84
2023/01/27 06:22:23;;;;;;;15.23;8.73;;;;;;;;;;4992924;28;20283;-87
2023/01/27 06:24:50;;;;;;;14.53;9.07;;;;;;;;;;4992663;28;20262;-84
2023/01/27 06:27:17;;;;;;;15.30;9.00;;;;;;;;;;4991895;28;20204;-83
2023/01/27 06:29:44;;;;;;;13.37;9.17;;;;;;;;;;4992532;28;20236;-85
2023/01/27 06:32:11;;;;;;;11.80;8.10;;;;;;;;;;4992793;28;20197;-82
2023/01/27 06:34:38;;;;;;;15.20;8.43;;;;;;;;;;4992067;28;20242;-84
2023/01/27 06:37:06;;;;;;;13.90;8.50;;;;;;;;;;4993887;28;20228;-86
2023/01/27 06:39:36;;;;;;;15.93;9.90;;;;;;;;;;4993809;28;20239;-88
2023/01/27 06:42:06;;;;;;;17.13;8.97;;;;;;;;;;4993952;28;20219;-88
2023/01/27 06:44:48;;;;;;;16.17;8.93;;;;;;;;;;4994627;28;20703;-87
2023/01/27 06:47:15;;;;;;;15.17;8.83;;;;;;;;;;4997574;28;20237;-86
2023/01/27 06:49:42;;;;;;;15.13;9.33;;;;;;;;;;4996169;28;20266;-87
2023/01/27 06:52:10;;;;;;;15.67;8.67;;;;;;;;;;4996051;28;20180;-87
2023/01/27 06:54:39;;;;;;;15.63;9.13;;;;;;;;;;4995942;28;20243;-88
2023/01/27 06:57:06;;;;;;;15.03;8.83;;;;;;;;;;4996126;28;20236;-88
2023/01/27 06:59:33;;;;;;;17.67;9.13;;;;;;;;;;4995939;28;20251;-88
2023/01/27 07:02:00;;;;;;;16.40;9.40;;;;;;;;;;4995140;28;20223;-84
2023/01/27 07:04:28;;;;;;;17.07;10.07;;;;;;;;;;4991165;28;20242;-88
2023/01/27 07:06:56;;;;;;;14.53;9.07;;;;;;;;;;4993104;28;20254;-88
2023/01/27 07:09:23;;;;;;;17.87;9.37;;;;;;;;;;4992461;28;20235;-86
2023/01/27 07:11:52;;;;;;;13.23;8.77;;;;;;;;;;4993268;28;20215;-87
2023/01/27 07:14:19;;;;;;;13.10;9.20;;;;;;;;;;4993049;28;20211;-87
2023/01/27 07:16:46;;;;;;;17.40;9.37;;;;;;;;;;4993241;28;20228;-85
2023/01/27 07:19:13;;;;;;;15.17;9.03;;;;;;;;;;4992225;27;20287;-85
2023/01/27 07:21:40;;;;;;;14.93;9.00;;;;;;;;;;4992631;28;20229;-85
2023/01/27 07:24:08;;;;;;;15.07;9.03;;;;;;;;;;4992001;27;20219;-85
2023/01/27 07:26:35;;;;;;;16.83;9.70;;;;;;;;;;4992650;28;20228;-85
2023/01/27 07:29:03;;;;;;;17.03;10.17;;;;;;;;;;4992214;27;20239;-85
2023/01/27 07:31:30;;;;;;;22.23;10.60;;;;;;;;;;4993086;28;20224;-86
2023/01/27 07:33:57;;;;;;;16.67;8.90;;;;;;;;;;4992244;28;20221;-85
2023/01/27 07:36:24;;;;;;;14.23;9.30;;;;;;;;;;4991756;27;20244;-85
2023/01/27 07:38:51;;;;;;;17.37;9.40;;;;;;;;;;4992504;28;20212;-85
2023/01/27 07:41:18;;;;;;;17.77;10.13;;;;;;;;;;4991946;27;20252;-86
2023/01/27 07:43:45;;;;;;;13.27;9.13;;;;;;;;;;4992233;28;20232;-84
2023/01/27 07:46:14;;;;;;;16.87;9.57;;;;;;;;;;4987588;27;20246;-84
2023/01/27 07:48:41;;;;;;;16.77;10.40;;;;;;;;;;4989501;28;20581;-86
2023/01/27 07:51:12;;;;;;;16.73;10.10;;;;;;;;;;4991645;27;20274;-86
2023/01/27 07:53:39;;;;;;;17.60;10.27;;;;;;;;;;4992057;28;20189;-87
2023/01/27 07:56:10;;;;;;;18.13;10.13;;;;;;;;;;4991707;27;20240;-87
2023/01/27 07:58:37;;;;;;;19.63;9.43;;;;;;;;;;4991379;28;20207;-87
2023/01/27 08:01:05;;;;;;;18.10;9.27;;;;;;;;;;4991202;27;20224;-86
2023/01/27 08:03:34;;;;;;;14.60;10.03;;;;;;;;;;4992413;28;20521;-87
2023/01/27 08:06:04;;;;;;;18.63;9.47;;;;;;;;;;4991084;28;20243;-86
2023/01/27 08:08:32;;;;;;;21.87;10.70;;;;;;;;;;4992618;28;20301;-89
2023/01/27 08:11:00;;;;;;;17.33;9.50;;;;;;;;;;4992660;27;20238;-90
2023/01/27 08:13:27;;;;;;;16.80;9.67;;;;;;;;;;4992288;28;20219;-92
2023/01/27 08:15:57;;;;;;;20.57;10.10;;;;;;;;;;4992125;27;20293;-91
2023/01/27 08:18:25;;;;;;;14.47;8.70;;;;;;;;;;4992877;28;20215;-90
2023/01/27 08:20:53;;;;;;;20.50;9.20;;;;;;;;;;4992486;28;20240;-90
2023/01/27 08:23:21;;;;;;;18.23;9.73;;;;;;;;;;4992227;28;20193;-87
2023/01/27 08:25:52;;;;;;;15.57;8.63;;;;;;;;;;4994250;28;20236;-89
2023/01/27 08:28:19;;;;;;;17.30;10.13;;;;;;;;;;5028231;23;20225;-86
2023/01/27 08:30:47;;;;;;;19.50;9.60;;;;;;;;;;5080336;28;20224;-82
2023/01/27 08:33:14;;;;;;;16.27;9.40;;;;;;;;;;5073318;28;20217;-85
2023/01/27 08:35:43;;;;;;;17.07;9.70;;;;;;;;;;5072086;28;20244;-85
2023/01/27 08:38:12;;;;;;;15.27;9.53;;;;;;;;;;5072746;28;20274;-86
2023/01/27 08:40:39;;;;;;;14.13;8.97;;;;;;;;;;5071573;28;20626;-86
2023/01/27 08:43:06;;;;;;;16.70;9.37;;;;;;;;;;5073008;28;20228;-86
2023/01/27 08:45:33;;;;;;;21.63;10.83;;;;;;;;;;5073758;28;20243;-86
2023/01/27 08:48:00;;;;;;;15.57;9.33;;;;;;;;;;5072714;28;20841;-85
2023/01/27 08:50:29;;;;;;;14.17;9.20;;;;;;;;;;5083615;28;20594;-86
2023/01/27 08:52:57;;;;;;;15.93;9.23;;;;;;;;;;5085740;28;20300;-86
2023/01/27 08:55:26;;;;;;;15.50;9.27;;;;;;;;;;5071544;28;20249;-86
2023/01/27 08:57:53;;;;;;;15.20;9.50;;;;;;;;;;5073818;28;20233;-86
2023/01/27 09:00:22;;;;;;;14.70;9.20;;;;;;;;;;5071664;28;20229;-86
2023/01/27 09:02:50;;;;;;;16.57;9.73;;;;;;;;;;5071551;28;20237;-85
2023/01/27 09:05:17;;;;;;;15.10;9.77;;;;;;;;;;5071489;28;20793;-85
2023/01/27 09:07:45;;;;;;;16.60;9.53;;;;;;;;;;5071766;28;20190;-85
2023/01/27 09:10:12;;;;;;;18.80;9.73;;;;;;;;;;5071116;28;20315;-85
2023/01/27 09:12:41;;;;;;;16.33;9.20;;;;;;;;;;5071346;28;20295;-85
2023/01/27 09:15:08;;;;;;;13.00;8.70;;;;;;;;;;5071494;28;20278;-84
2023/01/27 09:17:35;;;;;;;16.80;10.13;;;;;;;;;;5084722;28;20272;-84
2023/01/27 09:20:03;;;;;;;18.27;8.97;;;;;;;;;;5074244;28;20236;-86
2023/01/27 09:22:30;;;;;;;17.47;10.30;;;;;;;;;;5071232;28;20210;-86
2023/01/27 09:24:57;;;;;;;15.33;8.73;;;;;;;;;;5071107;28;20232;-85
2023/01/27 09:27:24;;;;;;;16.70;10.00;;;;;;;;;;5071192;28;20228;-85
2023/01/27 09:29:52;;;;;;;16.83;9.33;;;;;;;;;;5071885;28;20240;-85
2023/01/27 09:32:20;;;;;;;16.40;9.53;;;;;;;;;;5071075;28;20240;-86
2023/01/27 09:34:47;;;;;;;15.63;9.67;;;;;;;;;;5070931;28;20240;-86
2023/01/27 09:37:14;;;;;;;16.60;9.60;;;;;;;;;;5071812;28;20182;-86
2023/01/27 09:39:43;;;;;;;15.30;8.47;;;;;;;;;;5071587;28;20233;-87
2023/01/27 09:42:24;;;;;;;23.30;9.33;;;;;;;;;;5070799;28;20201;-87
2023/01/27 09:45:00;;;;;;;15.30;9.40;;;;;;;;;;5071354;28;20240;-87
2023/01/27 09:47:41;;;;;;;15.63;9.27;;;;;;;;;;5071506;28;20190;-87
2023/01/27 09:50:15;;;;;;;16.07;9.50;;;;;;;;;;5078738;28;20229;-86
2023/01/27 09:52:56;;;;;;;15.30;9.27;;;;;;;;;;5071925;28;20209;-85
2023/01/27 09:55:28;;;;;;;15.37;9.33;;;;;;;;;;5070103;28;20231;-85
2023/01/27 09:58:00;;;;;;;14.00;9.23;;;;;;;;;;5078107;28;20248;-83
2023/01/27 10:00:44;;;;;;;14.13;9.83;;;;;;;;;;5091488;28;20232;-87
2023/01/27 10:03:30;;;;;;;14.50;9.43;;;;;;;;;;5090754;28;20198;-85
2023/01/27 10:06:07;;;;;;;16.43;9.40;;;;;;;;;;5071762;28;20228;-85
2023/01/27 10:08:53;;;;;;;15.17;9.50;;;;;;;;;;5071867;28;20225;-86
2023/01/27 10:11:24;;;;;;;16.90;11.77;;;;;;;;;;5072864;28;20225;-85
2023/01/27 10:13:58;;;;;;;14.43;10.03;;;;;;;;;;5073453;28;20586;-86
2023/01/27 10:16:36;;;;;;;16.83;10.67;;;;;;;;;;5073293;28;20575;-86
2023/01/27 10:19:11;;;;;;;14.37;9.67;;;;;;;;;;5071676;28;20713;-86
2023/01/27 10:21:43;;;;;;;12.57;9.13;;;;;;;;;;5071922;28;20213;-86
2023/01/27 10:24:14;;;;;;;16.03;9.00;;;;;;;;;;5071010;28;20676;-86
2023/01/27 10:26:42;;;;;;;12.37;7.57;;;;;;;;;;5071999;28;20288;-85
2023/01/27 10:29:10;;;;;;;10.10;8.03;;;;;;;;;;5070698;28;20248;-85
2023/01/27 10:31:38;;;;;;;11.27;8.53;;;;;;;;;;5073101;28;20221;-86
2023/01/27 10:34:11;;;;;;;11.60;8.07;;;;;;;;;;5070892;28;20209;-86
2023/01/27 10:36:41;;;;;;;7.63;6.33;;;;;;;;;;5071687;28;20201;-86
2023/01/27 10:39:15;;;;;;;8.10;5.73;;;;;;;;;;5072769;28;20287;-86
2023/01/27 10:41:45;;;;;;;7.97;6.37;;;;;;;;;;5054824;28;20194;-87
2023/01/27 10:44:23;;;;;;;6.87;5.40;;;;;;;;;;5061359;28;20189;-85
2023/01/27 10:46:55;;;;;;;6.30;5.37;;;;;;;;;;5074955;28;20185;-87
2023/01/27 10:49:24;;;;;;;6.73;5.70;;;;;;;;;;5075100;28;20237;-87
2023/01/27 10:51:53;;;;;;;7.50;5.97;;;;;;;;;;5074275;28;20229;-87
2023/01/27 10:54:23;;;;;;;7.10;5.63;;;;;;;;;;5073242;28;22406;-86
2023/01/27 10:56:52;;;;;;;7.63;5.57;;;;;;;;;;5074299;28;20695;-86
2023/01/27 10:59:23;;;;;;;5.77;5.13;;;;;;;;;;5073359;28;20735;-86
2023/01/27 11:01:52;;;;;;;5.50;4.87;;;;;;;;;;5073857;28;20212;-85
2023/01/27 11:04:24;;;;;;;5.53;4.77;;;;;;;;;;5072659;28;20207;-86
2023/01/27 11:06:51;;;;;;;5.33;4.60;;;;;;;;;;5073310;28;20197;-86
2023/01/27 11:09:25;;;;;;;4.50;4.10;;;;;;;;;;5073312;28;20566;-86
2023/01/27 11:11:53;;;;;;;4.20;3.80;;;;;;;;;;5073688;28;20209;-87
2023/01/27 11:14:24;;;;;;;4.83;4.10;;;;;;;;;;5073194;28;20202;-86
2023/01/27 11:16:52;;;;;;;4.30;3.80;;;;;;;;;;5073998;28;20209;-85
2023/01/27 11:19:35;;;;;;;3.83;3.50;;;;;;;;;;5074059;28;20229;-86
2023/01/27 11:22:04;;;;;;;3.67;3.37;;;;;;;;;;5079220;28;20196;-85
2023/01/27 11:24:39;;;;;;;3.70;3.40;;;;;;;;;;5073283;28;20233;-86
2023/01/27 11:27:11;;;;;;;3.87;3.53;;;;;;;;;;5073768;28;20207;-86
2023/01/27 11:29:40;;;;;;;3.60;3.30;;;;;;;;;;5072648;28;20730;-85
2023/01/27 11:32:11;;;;;;;3.23;3.03;;;;;;;;;;5073092;28;20599;-85
2023/01/27 11:34:42;;;;;;;3.40;3.20;;;;;;;;;;5072024;28;20246;-85
2023/01/27 11:37:17;;;;;;;3.57;3.27;;;;;;;;;;5061150;28;20205;-86
2023/01/27 11:39:45;;;;;;;3.73;3.43;;;;;;;;;;5072832;28;20236;-86
2023/01/27 11:42:13;;;;;;;3.17;2.97;;;;;;;;;;5072241;28;20297;-86
2023/01/27 11:44:41;;;;;;;3.13;2.83;;;;;;;;;;5072276;28;20230;-86
2023/01/27 11:47:09;;;;;;;2.67;2.57;;;;;;;;;;5073364;28;20803;-86
2023/01/27 11:49:39;;;;;;;2.63;2.43;;;;;;;;;;5072379;28;20911;-86
2023/01/27 11:52:11;;;;;;;2.60;2.50;;;;;;;;;;5073068;28;20231;-86
2023/01/27 11:54:41;;;;;;;2.60;2.40;;;;;;;;;;5072129;28;20232;-86
2023/01/27 11:57:16;;;;;;;2.50;2.40;;;;;;;;;;5072706;28;20606;-86
2023/01/27 11:59:44;;;;;;;3.00;2.80;;;;;;;;;;5072034;28;20612;-86
2023/01/27 12:02:18;;;;;;;2.60;2.40;;;;;;;;;;5072942;28;20189;-86
2023/01/27 12:04:50;;;;;;;2.77;2.57;;;;;;;;;;5072121;28;20225;-85
2023/01/27 12:07:20;;;;;;;2.90;2.70;;;;;;;;;;5072459;28;20189;-84
2023/01/27 12:09:48;;;;;;;2.80;2.60;;;;;;;;;;5071931;28;20256;-85
2023/01/27 12:12:22;;;;;;;3.20;2.90;;;;;;;;;;5072164;28;20231;-85
2023/01/27 12:14:52;;;;;;;3.20;2.80;;;;;;;;;;5071832;28;20243;-83
2023/01/27 12:17:23;;;;;;;3.03;2.83;;;;;;;;;;5072303;28;20194;-85
2023/01/27 12:19:51;;;;;;;3.23;2.97;;;;;;;;;;5072073;28;20243;-87
2023/01/27 12:22:25;;;;;;;3.50;3.20;;;;;;;;;;5072398;28;20185;-86
2023/01/27 12:24:55;;;;;;;3.50;2.93;;;;;;;;;;5071727;28;20230;-85
2023/01/27 12:27:24;;;;;;;3.33;3.13;;;;;;;;;;5074442;28;20685;-86
2023/01/27 12:29:54;;;;;;;4.27;3.33;;;;;;;;;;5072040;28;20236;-86
2023/01/27 12:32:23;;;;;;;3.20;2.97;;;;;;;;;;5072466;28;20228;-87
2023/01/27 12:34:55;;;;;;;3.00;2.80;;;;;;;;;;5072276;28;20605;-88
2023/01/27 12:37:23;;;;;;;3.40;3.13;;;;;;;;;;5072813;28;20306;-87
2023/01/27 12:39:55;;;;;;;2.77;2.57;;;;;;;;;;5072266;28;20237;-86
2023/01/27 12:42:35;;;;;;;2.80;2.60;;;;;;;;;;5072922;28;20208;-88
2023/01/27 12:45:17;;;;;;;3.73;2.90;;;;;;;;;;5073412;28;20665;-87
2023/01/27 12:47:55;;;;;;;2.57;2.47;;;;;;;;;;5076394;28;20202;-87
2023/01/27 12:50:23;;;;;;;4.30;2.70;;;;;;;;;;5097768;28;20243;-87
2023/01/27 12:52:53;;;;;;;2.70;2.50;;;;;;;;;;5095255;28;20244;-87
2023/01/27 12:55:28;;;;;;;2.80;2.57;;;;;;;;;;5073686;28;20650;-87
2023/01/27 12:57:58;;;;;;;2.00;1.90;;;;;;;;;;5071099;28;20245;-86
2023/01/27 13:00:26;;;;;;;2.63;2.43;;;;;;;;;;5070577;28;20237;-88
2023/01/27 13:02:58;;;;;;;2.47;2.37;;;;;;;;;;5084386;28;20677;-87
2023/01/27 13:05:25;;;;;;;2.57;2.37;;;;;;;;;;5071043;28;20241;-86
2023/01/27 13:07:53;;;;;;;2.40;2.30;;;;;;;;;;5072407;28;20236;-87
2023/01/27 13:10:22;;;;;;;2.40;2.30;;;;;;;;;;5071578;28;20241;-87
2023/01/27 13:12:50;;;;;;;2.90;2.70;;;;;;;;;;5071911;28;20599;-87
2023/01/27 13:15:19;;;;;;;2.77;2.57;;;;;;;;;;5071653;28;20603;-87
2023/01/27 13:17:47;;;;;;;2.87;2.67;;;;;;;;;;5071344;28;20231;-87
2023/01/27 13:20:18;;;;;;;2.50;2.40;;;;;;;;;;5071733;28;20246;-87
2023/01/27 13:22:47;;;;;;;3.23;2.57;;;;;;;;;;5072311;28;20204;-87
2023/01/27 13:25:17;;;;;;;2.30;2.20;;;;;;;;;;5071270;28;20603;-87
2023/01/27 13:27:44;;;;;;;2.70;2.50;;;;;;;;;;5072198;28;20215;-87
2023/01/27 13:30:16;;;;;;;2.17;2.07;;;;;;;;;;5072101;28;20240;-87
2023/01/27 13:32:47;;;;;;;2.53;2.33;;;;;;;;;;5072583;28;20235;-86
2023/01/27 13:35:18;;;;;;;2.30;2.20;;;;;;;;;;5071446;28;20243;-87
2023/01/27 13:37:47;;;;;;;2.50;2.40;;;;;;;;;;5071037;28;20209;-87
2023/01/27 13:40:17;;;;;;;2.30;2.20;;;;;;;;;;5082839;28;20236;-87
2023/01/27 13:42:46;;;;;;;2.40;2.30;;;;;;;;;;5091304;28;20199;-87
2023/01/27 13:45:16;;;;;;;2.40;2.30;;;;;;;;;;5090524;28;20247;-86
2023/01/27 13:47:47;;;;;;;2.20;2.10;;;;;;;;;;5081688;28;20205;-87
2023/01/27 13:50:21;;;;;;;2.60;2.37;;;;;;;;;;5073524;28;20248;-87
2023/01/27 13:52:51;;;;;;;2.20;2.10;;;;;;;;;;5072635;28;20317;-87
2023/01/27 13:55:22;;;;;;;3.20;2.47;;;;;;;;;;5070294;28;20232;-85
2023/01/27 13:57:56;;;;;;;2.27;2.13;;;;;;;;;;5070178;28;20261;-87
2023/01/27 14:00:31;;;;;;;2.47;2.37;;;;;;;;;;5070281;28;20657;-87
2023/01/27 14:03:21;;;;;;;2.30;2.20;;;;;;;;;;5083088;28;20208;-87
2023/01/27 14:05:56;;;;;;;2.60;2.40;;;;;;;;;;5090485;28;20235;-86
2023/01/27 14:08:31;;;;;;;2.13;2.03;;;;;;;;;;5077448;28;20223;-87
2023/01/27 14:11:04;;;;;;;2.53;2.40;;;;;;;;;;5070200;28;20243;-86
2023/01/27 14:13:40;;;;;;;2.50;2.30;;;;;;;;;;5073812;28;20606;-86
2023/01/27 14:16:09;;;;;;;2.67;2.47;;;;;;;;;;5074625;28;20237;-86
2023/01/27 14:18:40;;;;;;;2.30;2.20;;;;;;;;;;5074299;28;20225;-86
2023/01/27 14:21:14;;;;;;;2.50;2.40;;;;;;;;;;5086193;28;20247;-86
2023/01/27 14:23:45;;;;;;;2.40;2.20;;;;;;;;;;5085967;28;20204;-86
2023/01/27 14:26:17;;;;;;;2.10;2.00;;;;;;;;;;5074036;28;20704;-86
2023/01/27 14:28:52;;;;;;;2.60;2.40;;;;;;;;;;5073708;28;20244;-86
2023/01/27 14:31:21;;;;;;;2.10;2.00;;;;;;;;;;5075486;28;20234;-86
2023/01/27 14:33:56;;;;;;;2.50;2.30;;;;;;;;;;5078691;28;20238;-85
2023/01/27 14:36:27;;;;;;;2.20;2.10;;;;;;;;;;5079557;28;20235;-85
2023/01/27 14:39:00;;;;;;;2.23;2.13;;;;;;;;;;5090703;28;20220;-85
2023/01/27 14:41:32;;;;;;;2.57;2.47;;;;;;;;;;5087827;28;20225;-85
2023/01/27 14:44:10;;;;;;;2.57;2.37;;;;;;;;;;5094943;28;20186;-86
2023/01/27 14:46:49;;;;;;;2.53;2.33;;;;;;;;;;5094971;28;20245;-85
2023/01/27 14:49:19;;;;;;;2.00;1.90;;;;;;;;;;5094055;28;20227;-85
2023/01/27 14:51:49;;;;;;;3.07;2.10;;;;;;;;;;5075960;28;20294;-85
2023/01/27 14:54:31;;;;;;;2.40;2.30;;;;;;;;;;5073643;28;20238;-85
2023/01/27 14:57:08;;;;;;;3.50;2.30;;;;;;;;;;5074021;28;20229;-85
2023/01/27 14:59:40;;;;;;;3.27;2.60;;;;;;;;;;5073504;28;20231;-85
2023/01/27 15:02:13;;;;;;;2.30;2.20;;;;;;;;;;5053822;28;20244;-86
2023/01/27 15:04:47;;;;;;;2.37;2.27;;;;;;;;;;5053674;28;20236;-85
2023/01/27 15:07:19;;;;;;;2.00;1.90;;;;;;;;;;5081303;28;20211;-86
2023/01/27 15:09:53;;;;;;;2.60;2.40;;;;;;;;;;5093720;28;20233;-86
2023/01/27 15:12:39;;;;;;;2.30;2.20;;;;;;;;;;5073794;28;20216;-86
2023/01/27 15:15:21;;;;;;;2.20;2.10;;;;;;;;;;5073140;28;20231;-86
2023/01/27 15:17:54;;;;;;;2.10;2.00;;;;;;;;;;5070888;28;20575;-86